createdAt,value
2022-12-22T00:00:57.518Z,99175.69
2022-12-22T00:02:20.390Z,99170.53
2022-12-22T00:03:40.790Z,99166.03
2022-12-22T00:05:03.004Z,99161.69
2022-12-22T00:06:28.062Z,99160.03
2022-12-22T00:07:48.398Z,99157.38
2022-12-22T00:09:08.675Z,99155.72
2022-12-22T00:10:28.919Z,99150.53
2022-12-22T00:11:49.128Z,99147.88
2022-12-22T00:13:09.890Z,99148.88
2022-12-22T00:14:31.064Z,99149.88
2022-12-22T00:15:53.808Z,99141.06
2022-12-22T00:17:16.546Z,99138.41
2022-12-22T00:18:36.750Z,99128.25
2022-12-22T00:19:56.967Z,99133.88
2022-12-22T00:21:17.384Z,99139.41
2022-12-22T00:22:42.055Z,99138.75
2022-12-22T00:24:02.332Z,99127.78
2022-12-22T00:25:22.922Z,99140.56
2022-12-22T00:26:43.905Z,99134.78
2022-12-22T00:28:04.570Z,99138.09
2022-12-22T00:29:25.215Z,99127.44
2022-12-22T00:30:45.647Z,99127.13
2022-12-22T00:32:06.130Z,99119.44
2022-12-22T00:33:30.366Z,99114.25
2022-12-22T00:34:58.591Z,99116.75
2022-12-22T00:36:18.774Z,99083.38
2022-12-22T00:37:39.186Z,99112.44
2022-12-22T00:38:59.623Z,99085.97
2022-12-22T00:40:20.270Z,99091.44
2022-12-22T00:41:40.540Z,99085.44
2022-12-22T00:43:01.037Z,99085.25
2022-12-22T00:44:21.496Z,99081.78
2022-12-22T00:45:41.791Z,99080.75
2022-12-22T00:47:04.253Z,99086.25
2022-12-22T00:48:27.046Z,99070.31
2022-12-22T00:49:50.252Z,99081.78
2022-12-22T00:51:10.893Z,99095.94
2022-12-22T00:52:31.834Z,99087.28
2022-12-22T00:53:51.992Z,99079.50
2022-12-22T00:55:13.216Z,99079.78
2022-12-22T00:56:33.416Z,99095.47
2022-12-22T00:57:54.204Z,99076.38
2022-12-22T00:59:16.265Z,99086.78
2022-12-22T01:00:37.911Z,99080.81
2022-12-22T01:01:58.325Z,99075.94
2022-12-22T01:03:19.025Z,99081.44
2022-12-22T01:04:39.525Z,99084.97
2022-12-22T01:06:00.117Z,99084.13
2022-12-22T01:07:20.436Z,99077.13
2022-12-22T01:08:40.632Z,99064.69
2022-12-22T01:10:07.894Z,99076.47
2022-12-22T01:11:28.220Z,99076.13
2022-12-22T01:12:56.083Z,99068.31
2022-12-22T01:14:16.793Z,99063.78
2022-12-22T01:15:39.193Z,99053.31
2022-12-22T01:16:59.639Z,99049.22
2022-12-22T01:18:20.141Z,99051.53
2022-12-22T01:19:40.447Z,99065.00
2022-12-22T01:21:00.568Z,99070.31
2022-12-22T01:22:20.790Z,99071.34
2022-12-22T01:23:41.165Z,99048.03
2022-12-22T01:25:03.489Z,99055.03
2022-12-22T01:26:29.427Z,99055.69
2022-12-22T01:27:49.559Z,99060.66
2022-12-22T01:29:09.820Z,99050.06
2022-12-22T01:30:30.227Z,99061.84
2022-12-22T01:31:51.463Z,99060.19
2022-12-22T01:33:11.668Z,99065.34
2022-12-22T01:34:32.005Z,99062.19
2022-12-22T01:35:53.786Z,99055.84
2022-12-22T01:37:13.888Z,99041.56
2022-12-22T01:38:34.481Z,99063.84
2022-12-22T01:39:54.797Z,99062.03
2022-12-22T01:41:17.296Z,99071.84
2022-12-22T01:42:37.613Z,99065.50
2022-12-22T01:43:58.036Z,99070.03
2022-12-22T01:45:37.076Z,99070.19
2022-12-22T01:47:06.174Z,99060.81
2022-12-22T01:48:38.064Z,99061.84
2022-12-22T01:50:02.059Z,99063.69
2022-12-22T01:51:28.737Z,99059.38
2022-12-22T01:52:53.461Z,99057.72
2022-12-22T01:54:14.750Z,99058.72
2022-12-22T01:55:39.004Z,99061.38
2022-12-22T01:57:00.756Z,99068.38
2022-12-22T01:58:20.992Z,99064.03
2022-12-22T01:59:41.663Z,99060.59
2022-12-22T02:01:04.628Z,99048.97
2022-12-22T02:02:26.481Z,99065.22
2022-12-22T02:03:47.126Z,99062.38
2022-12-22T02:05:07.999Z,99071.41
2022-12-22T02:06:33.598Z,99062.56
2022-12-22T02:08:01.536Z,99061.53
2022-12-22T02:09:43.460Z,99055.19
2022-12-22T02:11:31.504Z,99063.69
2022-12-22T02:13:00.806Z,99059.16
2022-12-22T02:14:30.082Z,99070.19
2022-12-22T02:16:02.739Z,99066.72
2022-12-22T02:18:06.585Z,99071.84
2022-12-22T02:19:39.634Z,99067.72
2022-12-22T02:21:06.916Z,99070.19
2022-12-22T02:22:45.399Z,99073.06
2022-12-22T02:24:24.038Z,99070.84
2022-12-22T02:25:59.908Z,99065.88
2022-12-22T02:27:21.154Z,99067.72
2022-12-22T02:28:42.701Z,99066.41
2022-12-22T02:30:16.328Z,99056.94
2022-12-22T02:31:36.768Z,99067.25
2022-12-22T02:33:07.097Z,99063.91
2022-12-22T02:34:33.572Z,99047.25
2022-12-22T02:36:25.725Z,99060.72
2022-12-22T02:38:28.863Z,99059.16
2022-12-22T02:40:20.282Z,99054.03
2022-12-22T02:42:03.188Z,99056.50
2022-12-22T02:44:08.084Z,99051.16
2022-12-22T02:45:34.464Z,99035.22
2022-12-22T02:47:27.494Z,99037.72
2022-12-22T02:49:20.355Z,99039.84
2022-12-22T02:51:04.175Z,99039.03
2022-12-22T02:52:34.149Z,99038.53
2022-12-22T02:53:55.669Z,99029.91
2022-12-22T02:55:16.833Z,99028.94
2022-12-22T02:56:37.796Z,99034.94
2022-12-22T02:57:57.975Z,99028.94
2022-12-22T02:59:18.309Z,99030.28
2022-12-22T03:00:38.741Z,99030.28
2022-12-22T03:02:01.531Z,99030.09
2022-12-22T03:03:21.977Z,99025.97
2022-12-22T03:04:42.617Z,99031.94
2022-12-22T03:06:02.899Z,99025.78
2022-12-22T03:07:23.638Z,99024.75
2022-12-22T03:08:44.071Z,99018.13
2022-12-22T03:10:04.212Z,99023.94
2022-12-22T03:11:24.553Z,99017.31
2022-12-22T03:12:44.764Z,99014.09
2022-12-22T03:14:05.067Z,99014.09
2022-12-22T03:15:25.855Z,99012.78
2022-12-22T03:16:46.267Z,99015.09
2022-12-22T03:18:06.803Z,99012.44
2022-12-22T03:19:27.271Z,99016.97
2022-12-22T03:20:47.545Z,99010.63
2022-12-22T03:22:07.722Z,99012.44
2022-12-22T03:23:28.038Z,99018.63
2022-12-22T03:24:48.367Z,99012.44
2022-12-22T03:25:53.523Z,99018.63
2022-12-22T03:26:55.283Z,99009.31
2022-12-22T03:28:05.664Z,99019.34
2022-12-22T03:29:07.575Z,99013.00
2022-12-22T03:30:09.695Z,98998.06
2022-12-22T03:31:12.092Z,99006.34
2022-12-22T03:32:14.043Z,99007.38
2022-12-22T03:33:15.804Z,99006.16
2022-12-22T03:34:17.553Z,99003.69
2022-12-22T03:35:19.367Z,99006.34
2022-12-22T03:36:21.187Z,99009.84
2022-12-22T03:37:23.062Z,98992.09
2022-12-22T03:38:25.715Z,98998.72
2022-12-22T03:39:27.515Z,98998.34
2022-12-22T03:40:33.269Z,98978.91
2022-12-22T03:41:53.457Z,98998.16
2022-12-22T03:43:13.743Z,98993.31
2022-12-22T03:44:34.001Z,98991.94
2022-12-22T03:46:13.912Z,98989.28
2022-12-22T03:47:15.800Z,98986.78
2022-12-22T03:48:17.628Z,98993.63
2022-12-22T03:49:19.634Z,98991.47
2022-12-22T03:50:21.426Z,98985.31
2022-12-22T03:51:23.300Z,98990.00
2022-12-22T03:52:25.067Z,98989.34
2022-12-22T03:53:26.911Z,98986.69
2022-12-22T03:54:28.732Z,98996.34
2022-12-22T03:55:30.624Z,98995.69
2022-12-22T03:56:33.152Z,98997.34
2022-12-22T03:57:34.976Z,98993.84
2022-12-22T03:58:37.059Z,99000.00
2022-12-22T03:59:38.847Z,98990.16
2022-12-22T04:00:40.763Z,98982.53
2022-12-22T04:01:53.920Z,98985.66
2022-12-22T04:02:58.336Z,98982.00
2022-12-22T04:04:00.282Z,98987.34
2022-12-22T04:05:02.180Z,98976.38
2022-12-22T04:06:04.123Z,98984.81
2022-12-22T04:07:05.935Z,98995.69
2022-12-22T04:08:07.888Z,98986.38
2022-12-22T04:09:09.950Z,98981.41
2022-12-22T04:10:30.559Z,98986.03
2022-12-22T04:11:50.735Z,98988.16
2022-12-22T04:12:55.835Z,98986.97
2022-12-22T04:13:57.701Z,98986.31
2022-12-22T04:14:59.455Z,98983.53
2022-12-22T04:16:01.236Z,98988.69
2022-12-22T04:17:05.402Z,98985.19
2022-12-22T04:18:07.204Z,98986.03
2022-12-22T04:19:10.048Z,98978.19
2022-12-22T04:20:12.104Z,98977.38
2022-12-22T04:21:13.984Z,98968.41
2022-12-22T04:22:15.794Z,98982.72
2022-12-22T04:23:17.796Z,98985.91
2022-12-22T04:24:19.608Z,98981.75
2022-12-22T04:25:22.274Z,98989.06
2022-12-22T04:26:25.282Z,98986.38
2022-12-22T04:27:27.060Z,98980.06
2022-12-22T04:28:28.899Z,98969.41
2022-12-22T04:29:30.687Z,98983.53
2022-12-22T04:30:32.543Z,98974.72
2022-12-22T04:31:34.383Z,98979.41
2022-12-22T04:32:36.311Z,98974.06
2022-12-22T04:33:38.357Z,98969.75
2022-12-22T04:34:40.121Z,98964.22
2022-12-22T04:35:41.888Z,98955.94
2022-12-22T04:36:43.745Z,98960.75
2022-12-22T04:37:45.562Z,98951.91
2022-12-22T04:38:47.496Z,98946.44
2022-12-22T04:39:49.278Z,98935.97
2022-12-22T04:40:51.058Z,98952.75
2022-12-22T04:41:52.880Z,98951.09
2022-12-22T04:42:54.877Z,98929.16
2022-12-22T04:43:56.766Z,98946.56
2022-12-22T04:44:58.554Z,98944.09
2022-12-22T04:46:00.749Z,98949.44
2022-12-22T04:47:02.791Z,98950.22
2022-12-22T04:48:04.967Z,98960.09
2022-12-22T04:49:07.015Z,98964.09
2022-12-22T04:50:09.092Z,98970.75
2022-12-22T04:51:10.999Z,98975.06
2022-12-22T04:52:12.919Z,98970.75
2022-12-22T04:53:14.683Z,98960.09
2022-12-22T04:54:16.556Z,98972.75
2022-12-22T04:55:18.394Z,98958.75
2022-12-22T04:56:20.189Z,98962.91
2022-12-22T04:57:22.185Z,98967.25
2022-12-22T04:58:24.017Z,98968.09
2022-12-22T04:59:25.971Z,98964.56
2022-12-22T05:00:27.831Z,98963.72
2022-12-22T05:01:29.805Z,98957.75
2022-12-22T05:02:31.805Z,98969.06
2022-12-22T05:03:33.824Z,98969.06
2022-12-22T05:04:35.645Z,98966.59
2022-12-22T05:05:37.498Z,98966.59
2022-12-22T05:06:39.364Z,98970.06
2022-12-22T05:07:41.127Z,98967.59
2022-12-22T05:08:43.230Z,98965.75
2022-12-22T05:09:45.018Z,98975.41
2022-12-22T05:10:46.862Z,98962.91
2022-12-22T05:11:48.704Z,98960.41
2022-12-22T05:12:56.372Z,98962.06
2022-12-22T05:14:03.511Z,98943.31
2022-12-22T05:15:09.019Z,98956.41
2022-12-22T05:16:14.216Z,98951.41
2022-12-22T05:17:16.094Z,98950.59
2022-12-22T05:18:17.870Z,98948.44
2022-12-22T05:19:19.751Z,98958.75
2022-12-22T05:20:22.062Z,98949.94
2022-12-22T05:21:23.876Z,98941.81
2022-12-22T05:22:25.755Z,98958.75
2022-12-22T05:23:27.576Z,98957.09
2022-12-22T05:24:29.324Z,98962.44
2022-12-22T05:25:35.132Z,98960.78
2022-12-22T05:26:37.495Z,98969.41
2022-12-22T05:27:39.347Z,98951.19
2022-12-22T05:28:42.357Z,98966.09
2022-12-22T05:29:44.198Z,98970.44
2022-12-22T05:30:46.025Z,98962.63
2022-12-22T05:31:47.852Z,98957.81
2022-12-22T05:32:49.700Z,98959.13
2022-12-22T05:33:51.536Z,98969.13
2022-12-22T05:34:53.316Z,98967.31
2022-12-22T05:35:55.092Z,98971.78
2022-12-22T05:36:56.949Z,98970.78
2022-12-22T05:37:58.827Z,98970.13
2022-12-22T05:39:00.671Z,98969.13
2022-12-22T05:40:02.613Z,98970.78
2022-12-22T05:41:04.993Z,98961.13
2022-12-22T05:42:06.911Z,98972.63
2022-12-22T05:43:10.256Z,98970.97
2022-12-22T05:44:12.056Z,98970.13
2022-12-22T05:45:15.633Z,98976.31
2022-12-22T05:46:17.632Z,98972.16
2022-12-22T05:47:19.505Z,98976.31
2022-12-22T05:48:28.322Z,98968.47
2022-12-22T05:49:32.789Z,98976.13
2022-12-22T05:50:34.707Z,98981.66
2022-12-22T05:51:39.271Z,98965.53
2022-12-22T05:52:41.653Z,98980.00
2022-12-22T05:53:43.587Z,98981.81
2022-12-22T05:54:45.336Z,98975.66
2022-12-22T05:55:47.938Z,98972.16
2022-12-22T05:56:49.754Z,98966.16
2022-12-22T05:57:51.528Z,98970.50
2022-12-22T05:58:53.335Z,98964.34
2022-12-22T05:59:55.179Z,98958.19
2022-12-22T06:00:58.689Z,98947.41
2022-12-22T06:02:00.628Z,98959.03
2022-12-22T06:03:02.579Z,98955.72
2022-12-22T06:04:04.840Z,98963.50
2022-12-22T06:05:07.328Z,98957.53
2022-12-22T06:06:09.220Z,98956.88
2022-12-22T06:07:11.069Z,98961.03
2022-12-22T06:08:12.972Z,98959.19
2022-12-22T06:09:14.842Z,98960.03
2022-12-22T06:10:17.016Z,98942.91
2022-12-22T06:11:19.389Z,98957.16
2022-12-22T06:12:21.201Z,98954.50
2022-12-22T06:13:24.027Z,98958.81
2022-12-22T06:14:25.869Z,98958.47
2022-12-22T06:15:27.639Z,98953.78
2022-12-22T06:16:29.784Z,98957.09
2022-12-22T06:17:31.860Z,98960.41
2022-12-22T06:18:33.637Z,98949.94
2022-12-22T06:19:35.468Z,98956.41
2022-12-22T06:20:37.244Z,98953.56
2022-12-22T06:21:39.113Z,98953.19
2022-12-22T06:22:40.924Z,98947.03
2022-12-22T06:23:42.904Z,98942.16
2022-12-22T06:24:44.776Z,98935.53
2022-12-22T06:26:01.712Z,98954.28
2022-12-22T06:27:03.649Z,98951.91
2022-12-22T06:28:05.562Z,98949.88
2022-12-22T06:29:07.428Z,98946.84
2022-12-22T06:30:09.811Z,98948.34
2022-12-22T06:31:11.668Z,98913.97
2022-12-22T06:32:13.455Z,98945.75
2022-12-22T06:33:15.769Z,98948.06
2022-12-22T06:34:18.148Z,98946.72
2022-12-22T06:35:19.984Z,98953.50
2022-12-22T06:36:21.893Z,98944.84
2022-12-22T06:37:23.661Z,98951.97
2022-12-22T06:38:26.079Z,98954.44
2022-12-22T06:39:27.985Z,98954.91
2022-12-22T06:40:29.773Z,98947.53
2022-12-22T06:41:50.095Z,98939.16
2022-12-22T06:43:10.680Z,98940.75
2022-12-22T06:44:12.821Z,98941.84
2022-12-22T06:45:14.635Z,98948.00
2022-12-22T06:46:16.420Z,98956.00
2022-12-22T06:47:18.329Z,98953.97
2022-12-22T06:48:20.715Z,98948.66
2022-12-22T06:49:22.833Z,98933.19
2022-12-22T06:50:24.766Z,98941.28
2022-12-22T06:51:26.540Z,98948.94
2022-12-22T06:52:28.411Z,98951.41
2022-12-22T06:53:30.220Z,98949.59
2022-12-22T06:54:31.979Z,98941.91
2022-12-22T06:55:33.896Z,98936.94
2022-12-22T06:56:35.664Z,98948.22
2022-12-22T06:57:37.492Z,98949.88
2022-12-22T06:58:39.293Z,98945.97
2022-12-22T06:59:41.076Z,98951.31
2022-12-22T07:00:43.766Z,98949.50
2022-12-22T07:01:45.755Z,98944.97
2022-12-22T07:02:47.918Z,98951.78
2022-12-22T07:03:49.846Z,98955.47
2022-12-22T07:04:51.723Z,98940.19
2022-12-22T07:05:53.656Z,98948.09
2022-12-22T07:06:55.492Z,98951.78
2022-12-22T07:08:01.170Z,98946.25
2022-12-22T07:09:07.830Z,98944.06
2022-12-22T07:10:10.331Z,98947.72
2022-12-22T07:11:12.308Z,98942.41
2022-12-22T07:12:14.100Z,98953.06
2022-12-22T07:13:21.743Z,98954.72
2022-12-22T07:14:23.645Z,98951.03
2022-12-22T07:15:25.424Z,98951.03
2022-12-22T07:16:27.398Z,98942.75
2022-12-22T07:17:29.253Z,98943.03
2022-12-22T07:18:33.223Z,98943.03
2022-12-22T07:19:35.587Z,98944.69
2022-12-22T07:20:37.393Z,98942.03
2022-12-22T07:21:39.518Z,98946.53
2022-12-22T07:22:41.309Z,98946.53
2022-12-22T07:23:43.210Z,98940.53
2022-12-22T07:24:45.052Z,98943.84
2022-12-22T07:25:46.884Z,98946.53
2022-12-22T07:26:49.236Z,98926.09
2022-12-22T07:27:51.021Z,98939.34
2022-12-22T07:28:52.865Z,98940.38
2022-12-22T07:29:54.691Z,98935.03
2022-12-22T07:30:56.485Z,98942.03
2022-12-22T07:31:58.382Z,98931.72
2022-12-22T07:33:00.148Z,98930.50
2022-12-22T07:34:01.974Z,98930.50
2022-12-22T07:35:05.891Z,98933.38
2022-12-22T07:36:14.044Z,98929.69
2022-12-22T07:37:15.802Z,98934.81
2022-12-22T07:38:17.567Z,98936.69
2022-12-22T07:39:19.322Z,98932.34
2022-12-22T07:40:21.712Z,98935.19
2022-12-22T07:41:42.327Z,98936.03
2022-12-22T07:42:46.911Z,98936.31
2022-12-22T07:43:48.725Z,98937.31
2022-12-22T07:44:50.543Z,98934.00
2022-12-22T07:45:52.335Z,98948.38
2022-12-22T07:46:54.238Z,98938.72
2022-12-22T07:48:23.051Z,98941.38
2022-12-22T07:49:43.644Z,98940.63
2022-12-22T07:50:45.437Z,98946.63
2022-12-22T07:51:47.392Z,98937.97
2022-12-22T07:52:49.252Z,98933.00
2022-12-22T07:53:50.992Z,98935.84
2022-12-22T07:54:52.758Z,98932.34
2022-12-22T07:55:54.550Z,98934.19
2022-12-22T07:56:56.823Z,98937.06
2022-12-22T07:57:58.973Z,98933.53
2022-12-22T07:59:00.939Z,98933.38
2022-12-22T08:00:03.343Z,98934.38
2022-12-22T08:01:13.859Z,98928.78
2022-12-22T08:02:16.249Z,98940.38
2022-12-22T08:03:18.252Z,98939.09
2022-12-22T08:04:20.332Z,98943.19
2022-12-22T08:05:24.395Z,98938.72
2022-12-22T08:06:26.663Z,98932.09
2022-12-22T08:07:28.548Z,98941.38
2022-12-22T08:08:30.411Z,98944.06
2022-12-22T08:09:32.190Z,98930.97
2022-12-22T08:10:33.986Z,98939.44
2022-12-22T08:11:36.216Z,98943.56
2022-12-22T08:12:38.652Z,98950.56
2022-12-22T08:13:40.529Z,98953.06
2022-12-22T08:14:45.901Z,98955.75
2022-12-22T08:15:47.798Z,98949.75
2022-12-22T08:16:49.794Z,98962.75
2022-12-22T08:17:51.871Z,98954.72
2022-12-22T08:18:53.723Z,98956.56
2022-12-22T08:19:56.412Z,98938.97
2022-12-22T08:20:58.195Z,98952.06
2022-12-22T08:22:01.281Z,98954.72
2022-12-22T08:23:03.131Z,98959.22
2022-12-22T08:24:05.358Z,98961.91
2022-12-22T08:25:07.473Z,98955.75
2022-12-22T08:26:24.237Z,98950.19
2022-12-22T08:27:39.864Z,98948.38
2022-12-22T08:28:48.302Z,98948.00
2022-12-22T08:29:53.622Z,98945.34
2022-12-22T08:30:55.425Z,98941.84
2022-12-22T08:31:57.395Z,98940.38
2022-12-22T08:32:59.267Z,98941.38
2022-12-22T08:34:04.535Z,98930.06
2022-12-22T08:35:08.243Z,98937.06
2022-12-22T08:36:10.819Z,98942.41
2022-12-22T08:37:16.743Z,98941.75
2022-12-22T08:38:18.579Z,98944.22
2022-12-22T08:39:22.140Z,98941.75
2022-12-22T08:40:28.765Z,98943.56
2022-12-22T08:41:49.351Z,98936.16
2022-12-22T08:42:56.952Z,98951.03
2022-12-22T08:43:58.745Z,98953.88
2022-12-22T08:45:00.556Z,98951.41
2022-12-22T08:46:02.401Z,98949.75
2022-12-22T08:47:04.300Z,98953.44
2022-12-22T08:48:06.497Z,98952.81
2022-12-22T08:49:08.329Z,98954.47
2022-12-22T08:50:10.335Z,98938.06
2022-12-22T08:51:12.161Z,98945.81
2022-12-22T08:52:18.458Z,98950.13
2022-12-22T08:53:54.097Z,98945.59
2022-12-22T08:54:42.854Z,98933.75
2022-12-22T08:55:55.087Z,98941.75
2022-12-22T08:56:58.703Z,98945.22
2022-12-22T08:58:00.501Z,98938.97
2022-12-22T08:59:05.349Z,98931.16
2022-12-22T09:00:09.426Z,98950.13
2022-12-22T09:01:22.653Z,98947.47
2022-12-22T09:02:24.670Z,98937.53
2022-12-22T09:03:26.712Z,98943.94
2022-12-22T09:04:28.531Z,98947.47
2022-12-22T09:05:30.348Z,98920.78
2022-12-22T09:06:40.153Z,98943.31
2022-12-22T09:07:42.809Z,98938.63
2022-12-22T09:08:44.617Z,98945.97
2022-12-22T09:09:46.797Z,98938.16
2022-12-22T09:10:48.614Z,98935.50
2022-12-22T09:11:50.608Z,98948.00
2022-12-22T09:12:52.633Z,98939.19
2022-12-22T09:13:56.269Z,98948.00
2022-12-22T09:14:58.623Z,98939.34
2022-12-22T09:16:04.325Z,98948.22
2022-12-22T09:17:06.234Z,98940.19
2022-12-22T09:18:08.028Z,98940.84
2022-12-22T09:19:10.354Z,98931.91
2022-12-22T09:20:12.520Z,98929.41
2022-12-22T09:21:14.589Z,98936.69
2022-12-22T09:22:20.342Z,98942.22
2022-12-22T09:23:25.719Z,98945.53
2022-12-22T09:24:27.527Z,98938.34
2022-12-22T09:25:29.399Z,98946.34
2022-12-22T09:26:32.305Z,98921.13
2022-12-22T09:27:34.154Z,98942.22
2022-12-22T09:28:36.739Z,98934.38
2022-12-22T09:29:38.615Z,98940.56
2022-12-22T09:30:40.496Z,98943.25
2022-12-22T09:31:42.676Z,98924.63
2022-12-22T09:32:44.519Z,98940.56
2022-12-22T09:33:46.727Z,98932.56
2022-12-22T09:34:48.944Z,98941.59
2022-12-22T09:35:50.722Z,98939.72
2022-12-22T09:36:52.505Z,98938.06
2022-12-22T09:37:54.251Z,98932.72
2022-12-22T09:38:56.334Z,98923.16
2022-12-22T09:39:58.086Z,98934.59
2022-12-22T09:41:00.117Z,98918.63
2022-12-22T09:42:02.167Z,98911.84
2022-12-22T09:43:04.521Z,98921.78
2022-12-22T09:44:14.852Z,98921.41
2022-12-22T09:45:21.465Z,98922.91
2022-12-22T09:46:26.516Z,98918.56
2022-12-22T09:47:39.696Z,98907.69
2022-12-22T09:48:41.479Z,98913.88
2022-12-22T09:49:43.284Z,98892.69
2022-12-22T09:50:45.055Z,98913.22
2022-12-22T09:51:52.364Z,98911.75
2022-12-22T09:52:59.113Z,98914.25
2022-12-22T09:54:01.934Z,98915.06
2022-12-22T09:55:13.126Z,98909.88
2022-12-22T09:56:17.468Z,98914.03
2022-12-22T09:57:19.518Z,98921.25
2022-12-22T09:58:30.968Z,98917.09
2022-12-22T09:59:32.875Z,98911.09
2022-12-22T10:00:36.647Z,98927.75
2022-12-22T10:02:06.249Z,98920.03
2022-12-22T10:03:25.811Z,98917.19
2022-12-22T10:05:05.879Z,98927.66
2022-12-22T10:06:29.777Z,98922.78
2022-12-22T10:07:34.701Z,98931.16
2022-12-22T10:08:38.345Z,98932.34
2022-12-22T10:09:55.480Z,98931.91
2022-12-22T10:10:57.771Z,98917.63
2022-12-22T10:12:02.334Z,98927.75
2022-12-22T10:13:05.958Z,98926.91
2022-12-22T10:14:11.005Z,98929.78
2022-12-22T10:15:18.357Z,98930.59
2022-12-22T10:16:27.902Z,98925.25
2022-12-22T10:17:32.604Z,98924.63
2022-12-22T10:18:35.576Z,98929.59
2022-12-22T10:19:37.371Z,98928.94
2022-12-22T10:20:40.292Z,98926.28
2022-12-22T10:21:47.099Z,98919.91
2022-12-22T10:22:52.655Z,98913.88
2022-12-22T10:23:54.655Z,98929.78
2022-12-22T10:24:57.263Z,98928.13
2022-12-22T10:26:29.064Z,98931.81
2022-12-22T10:27:37.349Z,98925.09
2022-12-22T10:28:49.448Z,98936.25
2022-12-22T10:29:51.569Z,98931.91
2022-12-22T10:31:16.807Z,98932.34
2022-12-22T10:32:21.357Z,98936.03
2022-12-22T10:33:23.231Z,98933.56
2022-12-22T10:34:25.179Z,98935.59
2022-12-22T10:35:27.086Z,98939.25
2022-12-22T10:36:32.227Z,98935.94
2022-12-22T10:37:39.878Z,98931.34
2022-12-22T10:39:00.781Z,98937.25
2022-12-22T10:40:18.525Z,98931.53
2022-12-22T10:41:22.683Z,98930.53
2022-12-22T10:42:24.586Z,98929.25
2022-12-22T10:43:29.860Z,98936.41
2022-12-22T10:44:37.156Z,98939.25
2022-12-22T10:45:48.044Z,98929.25
2022-12-22T10:46:52.117Z,98933.56
2022-12-22T10:47:57.418Z,98926.75
2022-12-22T10:49:26.565Z,98928.69
2022-12-22T10:50:28.596Z,98910.56
2022-12-22T10:51:30.516Z,98918.19
2022-12-22T10:52:33.240Z,98916.63
2022-12-22T10:53:56.172Z,98928.22
2022-12-22T10:55:25.870Z,98924.81
2022-12-22T10:56:30.411Z,98929.16
2022-12-22T10:57:32.311Z,98936.69
2022-12-22T10:58:49.437Z,98932.34
2022-12-22T11:00:02.896Z,98942.22
2022-12-22T11:01:05.619Z,98939.56
2022-12-22T11:02:27.175Z,98935.03
2022-12-22T11:03:31.314Z,98935.88
2022-12-22T11:04:33.189Z,98935.22
2022-12-22T11:05:35.036Z,98936.25
2022-12-22T11:06:44.401Z,98940.94
2022-12-22T11:07:50.277Z,98941.75
2022-12-22T11:08:52.343Z,98938.91
2022-12-22T11:09:54.316Z,98930.97
2022-12-22T11:11:04.134Z,98946.28
2022-12-22T11:12:43.298Z,98955.38
2022-12-22T11:14:08.018Z,98953.63
2022-12-22T11:15:48.843Z,98953.44
2022-12-22T11:16:58.327Z,98955.47
2022-12-22T11:18:13.834Z,98958.53
2022-12-22T11:19:34.487Z,98957.50
2022-12-22T11:21:07.496Z,98965.50
2022-12-22T11:22:18.957Z,98961.19
2022-12-22T11:23:29.875Z,98966.69
2022-12-22T11:24:47.018Z,98956.38
2022-12-22T11:26:22.600Z,98956.00
2022-12-22T11:28:41.121Z,98953.25
2022-12-22T11:29:45.874Z,98953.06
2022-12-22T11:31:15.237Z,98955.84
2022-12-22T11:32:43.483Z,98947.09
2022-12-22T11:34:20.775Z,98959.53
2022-12-22T11:35:41.603Z,98959.16
2022-12-22T11:36:49.613Z,98964.88
2022-12-22T11:38:06.645Z,98974.25
2022-12-22T11:39:14.601Z,98969.94
2022-12-22T11:40:32.046Z,98962.31
2022-12-22T11:41:59.583Z,98976.94
2022-12-22T11:43:25.635Z,98968.09
2022-12-22T11:44:44.030Z,98968.56
2022-12-22T11:46:02.207Z,98963.59
2022-12-22T11:47:12.066Z,98968.28
2022-12-22T11:48:22.472Z,98966.63
2022-12-22T11:49:33.325Z,98964.78
2022-12-22T11:50:59.426Z,98963.28
2022-12-22T11:52:04.716Z,98960.06
2022-12-22T11:53:24.442Z,98971.13
2022-12-22T11:54:38.112Z,98963.97
2022-12-22T11:55:45.232Z,98950.31
2022-12-22T11:57:39.273Z,98954.56
2022-12-22T11:59:05.401Z,98948.22
2022-12-22T12:00:14.451Z,98954.09
2022-12-22T12:01:42.755Z,98956.59
2022-12-22T12:03:11.023Z,98950.03
2022-12-22T12:04:21.028Z,98949.13
2022-12-22T12:05:49.730Z,98958.25
2022-12-22T12:06:57.551Z,98957.59
2022-12-22T12:08:08.024Z,98955.28
2022-12-22T12:09:36.156Z,98962.09
2022-12-22T12:11:02.063Z,98962.09
2022-12-22T12:12:21.024Z,98966.44
2022-12-22T12:13:49.479Z,98956.13
2022-12-22T12:15:16.107Z,98964.78
2022-12-22T12:16:20.107Z,98977.75
2022-12-22T12:17:25.111Z,98978.31
2022-12-22T12:18:45.287Z,98981.00
2022-12-22T12:20:18.673Z,98974.25
2022-12-22T12:21:30.473Z,98969.94
2022-12-22T12:23:00.115Z,98982.44
2022-12-22T12:24:13.770Z,98993.97
2022-12-22T12:25:44.512Z,98991.31
2022-12-22T12:27:42.967Z,99005.19
2022-12-22T12:29:14.068Z,98999.22
2022-12-22T12:31:51.942Z,98991.31
2022-12-22T12:33:01.304Z,98987.97
2022-12-22T12:34:03.796Z,98993.84
2022-12-22T12:35:22.038Z,98997.16
2022-12-22T12:36:27.736Z,99008.34
2022-12-22T12:37:33.646Z,99014.00
2022-12-22T12:40:35.020Z,99016.63
2022-12-22T12:41:53.819Z,99008.97
2022-12-22T12:42:58.247Z,99016.13
2022-12-22T12:44:01.374Z,99019.00
2022-12-22T12:45:05.337Z,99016.69
2022-12-22T12:46:46.093Z,99017.34
2022-12-22T12:47:47.884Z,99016.97
2022-12-22T12:48:50.064Z,98985.19
2022-12-22T12:49:51.836Z,99018.53
2022-12-22T12:50:57.891Z,99025.06
2022-12-22T12:52:09.624Z,99030.38
2022-12-22T12:53:11.691Z,99028.38
2022-12-22T12:54:43.484Z,99019.81
2022-12-22T12:55:48.251Z,99017.34
2022-12-22T12:57:11.286Z,99023.50
2022-12-22T12:58:35.823Z,99028.31
2022-12-22T12:59:40.576Z,99026.00
2022-12-22T13:00:49.805Z,99026.38
2022-12-22T13:01:57.639Z,99024.69
2022-12-22T13:03:00.428Z,99033.72
2022-12-22T13:04:04.663Z,99032.88
2022-12-22T13:05:12.819Z,99036.75
2022-12-22T13:06:53.559Z,99035.38
2022-12-22T13:08:26.946Z,99032.00
2022-12-22T13:11:10.386Z,99030.97
2022-12-22T13:12:54.104Z,99030.97
2022-12-22T13:13:57.925Z,99029.31
2022-12-22T13:15:01.797Z,99032.53
2022-12-22T13:16:04.292Z,99035.38
2022-12-22T13:17:44.350Z,99039.72
2022-12-22T13:18:51.062Z,99034.00
2022-12-22T13:19:54.064Z,99034.06
2022-12-22T13:21:42.434Z,99018.50
2022-12-22T13:22:29.865Z,99040.38
2022-12-22T13:24:14.474Z,99036.38
2022-12-22T13:25:04.964Z,99051.69
2022-12-22T13:26:10.360Z,99049.72
2022-12-22T13:27:12.478Z,99056.72
2022-12-22T13:28:19.469Z,99061.41
2022-12-22T13:29:40.944Z,99049.72
2022-12-22T13:30:53.215Z,99059.88
2022-12-22T13:32:00.503Z,99059.06
2022-12-22T13:33:02.801Z,99056.38
2022-12-22T13:35:28.470Z,99061.38
2022-12-22T13:36:27.059Z,99058.59
2022-12-22T13:37:29.617Z,99061.63
2022-12-22T13:38:37.166Z,99061.38
2022-12-22T13:39:38.988Z,99050.69
2022-12-22T13:40:43.443Z,99049.38
2022-12-22T13:41:48.462Z,99057.41
2022-12-22T13:42:56.972Z,99049.38
2022-12-22T13:44:06.120Z,99051.84
2022-12-22T13:45:28.464Z,99059.34
2022-12-22T13:46:33.169Z,99058.50
2022-12-22T13:47:35.094Z,99057.03
2022-12-22T13:48:44.650Z,99062.75
2022-12-22T13:50:08.402Z,99067.88
2022-12-22T13:51:25.817Z,99067.06
2022-12-22T13:52:27.736Z,99063.19
2022-12-22T13:54:11.256Z,99069.53
2022-12-22T13:54:56.835Z,99070.03
2022-12-22T13:55:58.992Z,99075.72